sensor_id;sensor_type;location;lat;lon;timestamp;temperature;humidity
6756;DHT22;3415;51.148;7.014;2022-08-19T07:07:49;21.30;1.00
6756;DHT22;3415;51.148;7.014;2022-08-19T07:10:17;21.30;1.00
6756;DHT22;3415;51.148;7.014;2022-08-19T07:12:43;21.20;1.00
6756;DHT22;3415;51.148;7.014;2022-08-19T07:15:11;21.50;1.00
6756;DHT22;3415;51.148;7.014;2022-08-19T07:17:38;21.50;1.00
6756;DHT22;3415;51.148;7.014;2022-08-19T07:20:07;21.60;1.00
6756;DHT22;3415;51.148;7.014;2022-08-19T07:22:34;21.60;1.00
6756;DHT22;3415;51.148;7.014;2022-08-19T07:25:03;21.70;1.00
6756;DHT22;3415;51.148;7.014;2022-08-19T07:27:30;21.90;1.00
6756;DHT22;3415;51.148;7.014;2022-08-19T07:29:57;21.80;1.00
6756;DHT22;3415;51.148;7.014;2022-08-19T07:32:24;21.60;1.00
6756;DHT22;3415;51.148;7.014;2022-08-19T07:34:53;21.80;1.00
6756;DHT22;3415;51.148;7.014;2022-08-19T07:37:20;21.70;1.00
6756;DHT22;3415;51.148;7.014;2022-08-19T07:39:48;21.80;1.00
6756;DHT22;3415;51.148;7.014;2022-08-19T07:42:16;21.90;1.00
6756;DHT22;3415;51.148;7.014;2022-08-19T07:44:46;21.90;1.00
6756;DHT22;3415;51.148;7.014;2022-08-19T07:47:13;22.00;1.00
6756;DHT22;3415;51.148;7.014;2022-08-19T07:49:42;22.20;1.00
6756;DHT22;3415;51.148;7.014;2022-08-19T07:52:09;22.40;1.00
6756;DHT22;3415;51.148;7.014;2022-08-19T07:54:37;22.40;1.00
6756;DHT22;3415;51.148;7.014;2022-08-19T07:57:05;22.70;1.00
6756;DHT22;3415;51.148;7.014;2022-08-19T07:59:34;22.80;1.00
6756;DHT22;3415;51.148;7.014;2022-08-19T08:02:02;22.80;1.00
6756;DHT22;3415;51.148;7.014;2022-08-19T08:04:30;22.70;1.00
6756;DHT22;3415;51.148;7.014;2022-08-19T08:07:15;22.60;1.00
6756;DHT22;3415;51.148;7.014;2022-08-19T08:10:11;23.00;1.00
6756;DHT22;3415;51.148;7.014;2022-08-19T08:12:39;23.10;1.00
6756;DHT22;3415;51.148;7.014;2022-08-19T08:15:11;23.10;1.00
6756;DHT22;3415;51.148;7.014;2022-08-19T08:17:42;23.00;1.00
6756;DHT22;3415;51.148;7.014;2022-08-19T08:20:10;23.20;1.00
6756;DHT22;3415;51.148;7.014;2022-08-19T08:22:37;23.40;1.00
6756;DHT22;3415;51.148;7.014;2022-08-19T08:25:26;23.90;1.00
6756;DHT22;3415;51.148;7.014;2022-08-19T08:27:53;24.10;1.00
6756;DHT22;3415;51.148;7.014;2022-08-19T08:30:25;24.20;1.00
6756;DHT22;3415;51.148;7.014;2022-08-19T08:32:53;24.60;1.00
6756;DHT22;3415;51.148;7.014;2022-08-19T08:35:22;25.30;1.00
6756;DHT22;3415;51.148;7.014;2022-08-19T08:37:50;25.70;1.00
6756;DHT22;3415;51.148;7.014;2022-08-19T08:40:21;27.00;1.00
6756;DHT22;3415;51.148;7.014;2022-08-19T08:42:55;25.30;99.90
6756;DHT22;3415;51.148;7.014;2022-08-19T08:45:28;28.50;99.90
6756;DHT22;3415;51.148;7.014;2022-08-19T08:48:00;27.00;99.90
6756;DHT22;3415;51.148;7.014;2022-08-19T08:50:32;30.00;99.90
6756;DHT22;3415;51.148;7.014;2022-08-19T08:53:02;30.10;99.90
6756;DHT22;3415;51.148;7.014;2022-08-19T08:55:31;30.10;99.90
6756;DHT22;3415;51.148;7.014;2022-08-19T08:58:01;30.20;99.90
6756;DHT22;3415;51.148;7.014;2022-08-19T09:00:33;30.70;99.90
6756;DHT22;3415;51.148;7.014;2022-08-19T09:03:01;31.10;99.90
6756;DHT22;3415;51.148;7.014;2022-08-19T09:05:38;30.20;99.90
6756;DHT22;3415;51.148;7.014;2022-08-19T09:08:13;30.90;99.90
6756;DHT22;3415;51.148;7.014;2022-08-19T09:10:44;31.20;99.90
6756;DHT22;3415;51.148;7.014;2022-08-19T09:13:20;31.20;99.90
6756;DHT22;3415;51.148;7.014;2022-08-19T09:15:56;31.70;99.90
6756;DHT22;3415;51.148;7.014;2022-08-19T09:18:38;30.30;99.90
6756;DHT22;3415;51.148;7.014;2022-08-19T09:21:05;30.50;99.90
6756;DHT22;3415;51.148;7.014;2022-08-19T09:23:33;30.60;99.90
6756;DHT22;3415;51.148;7.014;2022-08-19T09:26:00;30.90;99.90
6756;DHT22;3415;51.148;7.014;2022-08-19T09:28:26;30.50;99.90
6756;DHT22;3415;51.148;7.014;2022-08-19T09:30:56;28.80;99.90
6756;DHT22;3415;51.148;7.014;2022-08-19T09:33:22;28.70;99.90
6756;DHT22;3415;51.148;7.014;2022-08-19T09:35:49;29.50;99.90
6756;DHT22;3415;51.148;7.014;2022-08-19T09:38:16;29.60;99.90
6756;DHT22;3415;51.148;7.014;2022-08-19T09:40:43;29.80;99.90
6756;DHT22;3415;51.148;7.014;2022-08-19T09:43:10;29.90;99.90
6756;DHT22;3415;51.148;7.014;2022-08-19T09:45:37;30.40;99.90
6756;DHT22;3415;51.148;7.014;2022-08-19T09:48:05;30.70;99.90
6756;DHT22;3415;51.148;7.014;2022-08-19T09:50:32;31.10;99.90
6756;DHT22;3415;51.148;7.014;2022-08-19T09:52:59;31.00;99.90
6756;DHT22;3415;51.148;7.014;2022-08-19T09:55:26;30.40;99.90
6756;DHT22;3415;51.148;7.014;2022-08-19T09:57:53;29.70;99.90
6756;DHT22;3415;51.148;7.014;2022-08-19T10:00:20;30.10;99.90
6756;DHT22;3415;51.148;7.014;2022-08-19T10:02:47;30.10;99.90
6756;DHT22;3415;51.148;7.014;2022-08-19T10:05:15;30.00;99.90
6756;DHT22;3415;51.148;7.014;2022-08-19T10:08:00;30.10;99.90
6756;DHT22;3415;51.148;7.014;2022-08-19T10:10:26;30.10;99.90
6756;DHT22;3415;51.148;7.014;2022-08-19T10:12:53;30.50;99.90
6756;DHT22;3415;51.148;7.014;2022-08-19T10:15:21;31.00;99.90
6756;DHT22;3415;51.148;7.014;2022-08-19T10:17:48;31.90;99.90
6756;DHT22;3415;51.148;7.014;2022-08-19T10:20:16;32.30;99.90
6756;DHT22;3415;51.148;7.014;2022-08-19T10:22:43;33.00;99.90
6756;DHT22;3415;51.148;7.014;2022-08-19T10:25:10;32.60;99.90
6756;DHT22;3415;51.148;7.014;2022-08-19T10:27:39;32.70;99.90
6756;DHT22;3415;51.148;7.014;2022-08-19T10:30:07;33.30;99.90
6756;DHT22;3415;51.148;7.014;2022-08-19T10:32:35;34.00;99.90
6756;DHT22;3415;51.148;7.014;2022-08-19T10:35:03;33.50;99.90
6756;DHT22;3415;51.148;7.014;2022-08-19T10:37:35;34.30;99.90
6756;DHT22;3415;51.148;7.014;2022-08-19T10:40:03;33.70;99.90
6756;DHT22;3415;51.148;7.014;2022-08-19T10:42:31;32.80;99.90
6756;DHT22;3415;51.148;7.014;2022-08-19T10:44:58;32.30;99.90
6756;DHT22;3415;51.148;7.014;2022-08-19T10:47:25;31.70;99.90
6756;DHT22;3415;51.148;7.014;2022-08-19T10:49:53;31.90;99.90
6756;DHT22;3415;51.148;7.014;2022-08-19T10:52:40;32.90;99.90
6756;DHT22;3415;51.148;7.014;2022-08-19T10:55:08;32.00;99.90
6756;DHT22;3415;51.148;7.014;2022-08-19T10:57:52;30.20;99.90
6756;DHT22;3415;51.148;7.014;2022-08-19T11:00:19;28.50;99.90
6756;DHT22;3415;51.148;7.014;2022-08-19T11:02:47;28.10;99.90
6756;DHT22;3415;51.148;7.014;2022-08-19T11:05:15;29.40;99.90
6756;DHT22;3415;51.148;7.014;2022-08-19T11:07:44;29.60;99.90
6756;DHT22;3415;51.148;7.014;2022-08-19T11:10:14;29.00;99.90
6756;DHT22;3415;51.148;7.014;2022-08-19T11:12:44;28.70;99.90
6756;DHT22;3415;51.148;7.014;2022-08-19T11:15:12;28.20;99.90
6756;DHT22;3415;51.148;7.014;2022-08-19T11:17:39;27.70;99.90
6756;DHT22;3415;51.148;7.014;2022-08-19T11:20:09;27.30;99.90
6756;DHT22;3415;51.148;7.014;2022-08-19T11:22:37;27.70;99.90
6756;DHT22;3415;51.148;7.014;2022-08-19T11:25:08;28.40;99.90
6756;DHT22;3415;51.148;7.014;2022-08-19T11:27:38;30.30;99.90
6756;DHT22;3415;51.148;7.014;2022-08-19T11:30:08;32.30;99.90
6756;DHT22;3415;51.148;7.014;2022-08-19T11:32:35;33.00;99.90
6756;DHT22;3415;51.148;7.014;2022-08-19T11:35:02;33.70;99.90
6756;DHT22;3415;51.148;7.014;2022-08-19T11:37:29;34.00;99.90
6756;DHT22;3415;51.148;7.014;2022-08-19T11:39:56;32.50;99.90
6756;DHT22;3415;51.148;7.014;2022-08-19T11:42:24;32.80;99.90
6756;DHT22;3415;51.148;7.014;2022-08-19T11:45:09;32.40;99.90
6756;DHT22;3415;51.148;7.014;2022-08-19T11:47:36;31.40;99.90
6756;DHT22;3415;51.148;7.014;2022-08-19T11:50:04;30.80;99.90
6756;DHT22;3415;51.148;7.014;2022-08-19T11:52:32;32.40;99.90
6756;DHT22;3415;51.148;7.014;2022-08-19T11:54:59;33.60;99.90
6756;DHT22;3415;51.148;7.014;2022-08-19T11:57:27;34.30;99.90
6756;DHT22;3415;51.148;7.014;2022-08-19T11:59:54;34.40;99.90
6756;DHT22;3415;51.148;7.014;2022-08-19T12:02:21;35.00;99.90
6756;DHT22;3415;51.148;7.014;2022-08-19T12:04:48;35.70;99.90
6756;DHT22;3415;51.148;7.014;2022-08-19T12:07:15;36.40;99.90
6756;DHT22;3415;51.148;7.014;2022-08-19T12:09:42;36.80;99.90
6756;DHT22;3415;51.148;7.014;2022-08-19T12:12:09;35.70;99.90
6756;DHT22;3415;51.148;7.014;2022-08-19T12:14:38;35.70;99.90
6756;DHT22;3415;51.148;7.014;2022-08-19T12:17:04;35.20;99.90
6756;DHT22;3415;51.148;7.014;2022-08-19T12:19:33;34.10;99.90
6756;DHT22;3415;51.148;7.014;2022-08-19T12:22:01;32.40;99.90
6756;DHT22;3415;51.148;7.014;2022-08-19T12:24:30;31.10;99.90
6756;DHT22;3415;51.148;7.014;2022-08-19T12:26:58;30.40;99.90
6756;DHT22;3415;51.148;7.014;2022-08-19T12:29:27;30.00;99.90
6756;DHT22;3415;51.148;7.014;2022-08-19T12:31:57;29.80;99.90
6756;DHT22;3415;51.148;7.014;2022-08-19T12:34:29;29.90;99.90
6756;DHT22;3415;51.148;7.014;2022-08-19T12:36:56;30.00;99.90
6756;DHT22;3415;51.148;7.014;2022-08-19T12:39:23;29.80;99.90
6756;DHT22;3415;51.148;7.014;2022-08-19T12:41:51;29.50;99.90
6756;DHT22;3415;51.148;7.014;2022-08-19T12:44:18;29.20;99.90
6756;DHT22;3415;51.148;7.014;2022-08-19T12:46:46;29.00;99.90
6756;DHT22;3415;51.148;7.014;2022-08-19T12:49:14;28.60;99.90
6756;DHT22;3415;51.148;7.014;2022-08-19T12:51:41;28.00;99.90
6756;DHT22;3415;51.148;7.014;2022-08-19T12:54:09;28.00;99.90
6756;DHT22;3415;51.148;7.014;2022-08-19T12:56:36;28.30;99.90
6756;DHT22;3415;51.148;7.014;2022-08-19T12:59:03;28.40;99.90
6756;DHT22;3415;51.148;7.014;2022-08-19T13:01:32;28.40;99.90
6756;DHT22;3415;51.148;7.014;2022-08-19T13:03:59;28.70;99.90
6756;DHT22;3415;51.148;7.014;2022-08-19T13:06:27;28.80;99.90
6756;DHT22;3415;51.148;7.014;2022-08-19T13:08:54;29.10;99.90
6756;DHT22;3415;51.148;7.014;2022-08-19T13:11:22;29.10;99.90
6756;DHT22;3415;51.148;7.014;2022-08-19T13:13:51;29.20;99.90
6756;DHT22;3415;51.148;7.014;2022-08-19T13:16:19;29.00;99.90
6756;DHT22;3415;51.148;7.014;2022-08-19T13:18:48;28.60;99.90
6756;DHT22;3415;51.148;7.014;2022-08-19T13:21:18;28.30;99.90
6756;DHT22;3415;51.148;7.014;2022-08-19T13:23:47;28.20;99.90
6756;DHT22;3415;51.148;7.014;2022-08-19T13:26:15;28.00;99.90
6756;DHT22;3415;51.148;7.014;2022-08-19T13:28:43;28.00;99.90
6756;DHT22;3415;51.148;7.014;2022-08-19T13:31:30;27.90;99.90
6756;DHT22;3415;51.148;7.014;2022-08-19T13:34:17;28.10;99.90
6756;DHT22;3415;51.148;7.014;2022-08-19T13:36:45;28.30;99.90
6756;DHT22;3415;51.148;7.014;2022-08-19T13:39:13;28.10;99.90
6756;DHT22;3415;51.148;7.014;2022-08-19T13:41:44;27.70;99.90
6756;DHT22;3415;51.148;7.014;2022-08-19T13:44:13;27.30;99.90
6756;DHT22;3415;51.148;7.014;2022-08-19T13:46:40;27.50;99.90
6756;DHT22;3415;51.148;7.014;2022-08-19T13:49:10;27.70;99.90
6756;DHT22;3415;51.148;7.014;2022-08-19T13:51:38;27.50;99.90
6756;DHT22;3415;51.148;7.014;2022-08-19T13:54:05;27.50;99.90
6756;DHT22;3415;51.148;7.014;2022-08-19T13:56:34;27.50;99.90
6756;DHT22;3415;51.148;7.014;2022-08-19T13:59:01;27.50;99.90
6756;DHT22;3415;51.148;7.014;2022-08-19T14:01:28;27.60;99.90
6756;DHT22;3415;51.148;7.014;2022-08-19T14:03:55;27.60;99.90
6756;DHT22;3415;51.148;7.014;2022-08-19T14:06:22;27.80;99.90
6756;DHT22;3415;51.148;7.014;2022-08-19T14:08:50;27.60;99.90
6756;DHT22;3415;51.148;7.014;2022-08-19T14:11:18;27.60;99.90
6756;DHT22;3415;51.148;7.014;2022-08-19T14:13:46;27.60;99.90
6756;DHT22;3415;51.148;7.014;2022-08-19T14:16:14;27.70;99.90
6756;DHT22;3415;51.148;7.014;2022-08-19T14:18:41;27.70;99.90
6756;DHT22;3415;51.148;7.014;2022-08-19T14:21:15;27.90;99.90
6756;DHT22;3415;51.148;7.014;2022-08-19T14:23:42;27.80;99.90
6756;DHT22;3415;51.148;7.014;2022-08-19T14:26:12;27.90;99.90
6756;DHT22;3415;51.148;7.014;2022-08-19T14:28:41;28.20;99.90
6756;DHT22;3415;51.148;7.014;2022-08-19T14:31:09;28.10;99.90
6756;DHT22;3415;51.148;7.014;2022-08-19T14:33:36;27.90;99.90
6756;DHT22;3415;51.148;7.014;2022-08-19T14:36:04;27.80;99.90
6756;DHT22;3415;51.148;7.014;2022-08-19T14:38:31;28.00;99.90
6756;DHT22;3415;51.148;7.014;2022-08-19T14:41:13;28.10;99.90
6756;DHT22;3415;51.148;7.014;2022-08-19T14:43:42;28.10;99.90
6756;DHT22;3415;51.148;7.014;2022-08-19T14:46:13;28.20;99.90
6756;DHT22;3415;51.148;7.014;2022-08-19T14:48:41;28.20;99.90
6756;DHT22;3415;51.148;7.014;2022-08-19T14:51:08;28.20;99.90
6756;DHT22;3415;51.148;7.014;2022-08-19T14:53:35;27.80;99.90
6756;DHT22;3415;51.148;7.014;2022-08-19T14:56:07;27.60;99.90
6756;DHT22;3415;51.148;7.014;2022-08-19T14:58:35;27.50;99.90
6756;DHT22;3415;51.148;7.014;2022-08-19T15:01:02;27.80;99.90
6756;DHT22;3415;51.148;7.014;2022-08-19T15:03:31;27.90;99.90
6756;DHT22;3415;51.148;7.014;2022-08-19T15:06:00;27.90;99.90
6756;DHT22;3415;51.148;7.014;2022-08-19T15:08:28;27.90;99.90
6756;DHT22;3415;51.148;7.014;2022-08-19T15:10:56;27.80;99.90
6756;DHT22;3415;51.148;7.014;2022-08-19T15:13:23;28.00;99.90
6756;DHT22;3415;51.148;7.014;2022-08-19T15:15:52;28.30;99.90
6756;DHT22;3415;51.148;7.014;2022-08-19T15:18:19;28.10;99.90
6756;DHT22;3415;51.148;7.014;2022-08-19T15:20:49;28.20;99.90
6756;DHT22;3415;51.148;7.014;2022-08-19T15:23:17;28.10;99.90
6756;DHT22;3415;51.148;7.014;2022-08-19T15:25:45;28.10;99.90
6756;DHT22;3415;51.148;7.014;2022-08-19T15:28:12;27.90;99.90
6756;DHT22;3415;51.148;7.014;2022-08-19T15:30:41;27.80;99.90
6756;DHT22;3415;51.148;7.014;2022-08-19T15:33:10;27.80;99.90
6756;DHT22;3415;51.148;7.014;2022-08-19T15:35:39;27.70;99.90
6756;DHT22;3415;51.148;7.014;2022-08-19T15:38:09;27.70;99.90
6756;DHT22;3415;51.148;7.014;2022-08-19T15:40:38;27.70;99.90
6756;DHT22;3415;51.148;7.014;2022-08-19T15:43:06;27.70;99.90
6756;DHT22;3415;51.148;7.014;2022-08-19T15:45:33;27.90;99.90
6756;DHT22;3415;51.148;7.014;2022-08-19T15:48:01;27.90;99.90
6756;DHT22;3415;51.148;7.014;2022-08-19T15:50:29;28.00;99.90
6756;DHT22;3415;51.148;7.014;2022-08-19T15:53:00;28.00;99.90
6756;DHT22;3415;51.148;7.014;2022-08-19T15:55:31;27.80;99.90
6756;DHT22;3415;51.148;7.014;2022-08-19T15:57:58;27.80;99.90
6756;DHT22;3415;51.148;7.014;2022-08-19T16:00:43;27.70;99.90
6756;DHT22;3415;51.148;7.014;2022-08-19T16:03:37;27.60;99.90
6756;DHT22;3415;51.148;7.014;2022-08-19T16:06:21;27.50;99.90
6756;DHT22;3415;51.148;7.014;2022-08-19T16:08:51;27.50;99.90
6756;DHT22;3415;51.148;7.014;2022-08-19T16:11:22;27.50;99.90
6756;DHT22;3415;51.148;7.014;2022-08-19T16:13:51;27.60;99.90
6756;DHT22;3415;51.148;7.014;2022-08-19T16:16:19;27.50;99.90
6756;DHT22;3415;51.148;7.014;2022-08-19T16:18:47;27.50;99.90
6756;DHT22;3415;51.148;7.014;2022-08-19T16:21:18;27.50;99.90
6756;DHT22;3415;51.148;7.014;2022-08-19T16:23:46;27.50;99.90
6756;DHT22;3415;51.148;7.014;2022-08-19T16:26:14;27.50;99.90
6756;DHT22;3415;51.148;7.014;2022-08-19T16:28:43;27.50;99.90
6756;DHT22;3415;51.148;7.014;2022-08-19T16:31:12;27.30;99.90
6756;DHT22;3415;51.148;7.014;2022-08-19T16:33:39;27.20;99.90
6756;DHT22;3415;51.148;7.014;2022-08-19T16:36:07;26.80;99.90
6756;DHT22;3415;51.148;7.014;2022-08-19T16:38:34;26.60;99.90
6756;DHT22;3415;51.148;7.014;2022-08-19T16:41:02;26.30;99.90
6756;DHT22;3415;51.148;7.014;2022-08-19T16:43:29;26.20;99.90
6756;DHT22;3415;51.148;7.014;2022-08-19T16:45:58;26.20;99.90
6756;DHT22;3415;51.148;7.014;2022-08-19T16:48:27;26.00;99.90
6756;DHT22;3415;51.148;7.014;2022-08-19T16:50:55;25.80;99.90
6756;DHT22;3415;51.148;7.014;2022-08-19T16:53:24;25.70;99.90
6756;DHT22;3415;51.148;7.014;2022-08-19T16:55:54;25.60;99.90
6756;DHT22;3415;51.148;7.014;2022-08-19T16:58:22;25.30;99.90
6756;DHT22;3415;51.148;7.014;2022-08-19T17:00:51;25.30;99.90
6756;DHT22;3415;51.148;7.014;2022-08-19T17:03:19;25.10;99.90
6756;DHT22;3415;51.148;7.014;2022-08-19T17:05:49;25.20;99.90
6756;DHT22;3415;51.148;7.014;2022-08-19T17:08:18;25.10;99.90
6756;DHT22;3415;51.148;7.014;2022-08-19T17:10:45;25.20;99.90
6756;DHT22;3415;51.148;7.014;2022-08-19T17:13:13;25.10;99.90
6756;DHT22;3415;51.148;7.014;2022-08-19T17:15:42;25.10;99.90
6756;DHT22;3415;51.148;7.014;2022-08-19T17:18:10;25.10;99.90
6756;DHT22;3415;51.148;7.014;2022-08-19T17:20:40;25.00;99.90
6756;DHT22;3415;51.148;7.014;2022-08-19T17:23:08;25.00;99.90
6756;DHT22;3415;51.148;7.014;2022-08-19T17:25:36;25.00;99.90
6756;DHT22;3415;51.148;7.014;2022-08-19T17:28:06;25.00;99.90
6756;DHT22;3415;51.148;7.014;2022-08-19T17:30:33;25.00;99.90
6756;DHT22;3415;51.148;7.014;2022-08-19T17:32:59;24.80;99.90
6756;DHT22;3415;51.148;7.014;2022-08-19T17:35:26;24.80;99.90
6756;DHT22;3415;51.148;7.014;2022-08-19T17:37:55;24.70;99.90
6756;DHT22;3415;51.148;7.014;2022-08-19T17:40:23;24.70;99.90
6756;DHT22;3415;51.148;7.014;2022-08-19T17:42:50;24.60;99.90
6756;DHT22;3415;51.148;7.014;2022-08-19T17:45:19;24.60;99.90
6756;DHT22;3415;51.148;7.014;2022-08-19T17:47:46;24.60;99.90
6756;DHT22;3415;51.148;7.014;2022-08-19T17:50:14;24.60;99.90
6756;DHT22;3415;51.148;7.014;2022-08-19T17:52:41;24.60;99.90
6756;DHT22;3415;51.148;7.014;2022-08-19T17:55:10;24.60;99.90
6756;DHT22;3415;51.148;7.014;2022-08-19T17:57:37;24.60;99.90
6756;DHT22;3415;51.148;7.014;2022-08-19T18:00:08;24.60;99.90
6756;DHT22;3415;51.148;7.014;2022-08-19T18:02:43;24.40;99.90
6756;DHT22;3415;51.148;7.014;2022-08-19T18:05:10;24.40;99.90
6756;DHT22;3415;51.148;7.014;2022-08-19T18:07:39;24.40;99.90
6756;DHT22;3415;51.148;7.014;2022-08-19T18:10:07;24.40;99.90
6756;DHT22;3415;51.148;7.014;2022-08-19T18:12:35;24.30;99.90
6756;DHT22;3415;51.148;7.014;2022-08-19T18:15:03;24.30;99.90
6756;DHT22;3415;51.148;7.014;2022-08-19T18:17:30;24.20;99.90
6756;DHT22;3415;51.148;7.014;2022-08-19T18:19:58;24.10;99.90
6756;DHT22;3415;51.148;7.014;2022-08-19T18:22:27;24.10;99.90
6756;DHT22;3415;51.148;7.014;2022-08-19T18:24:56;24.00;99.90
6756;DHT22;3415;51.148;7.014;2022-08-19T18:27:23;23.90;99.90
6756;DHT22;3415;51.148;7.014;2022-08-19T18:29:51;23.80;99.90
6756;DHT22;3415;51.148;7.014;2022-08-19T18:32:21;23.70;99.90
6756;DHT22;3415;51.148;7.014;2022-08-19T18:34:50;23.60;99.90
6756;DHT22;3415;51.148;7.014;2022-08-19T18:37:18;23.50;99.90
6756;DHT22;3415;51.148;7.014;2022-08-19T18:39:45;23.30;99.90
6756;DHT22;3415;51.148;7.014;2022-08-19T18:42:30;23.40;99.90
6756;DHT22;3415;51.148;7.014;2022-08-19T18:45:15;23.30;99.90
6756;DHT22;3415;51.148;7.014;2022-08-19T18:47:59;23.30;99.90
6756;DHT22;3415;51.148;7.014;2022-08-19T18:50:44;23.30;99.90
6756;DHT22;3415;51.148;7.014;2022-08-19T18:53:10;23.30;99.90
6756;DHT22;3415;51.148;7.014;2022-08-19T18:55:38;23.30;99.90
6756;DHT22;3415;51.148;7.014;2022-08-19T18:58:05;23.30;99.90
6756;DHT22;3415;51.148;7.014;2022-08-19T19:00:33;23.30;99.90
6756;DHT22;3415;51.148;7.014;2022-08-19T19:03:02;23.20;99.90
6756;DHT22;3415;51.148;7.014;2022-08-19T19:05:29;23.20;99.90
6756;DHT22;3415;51.148;7.014;2022-08-19T19:07:56;23.10;99.90
6756;DHT22;3415;51.148;7.014;2022-08-19T19:10:25;23.00;99.90
6756;DHT22;3415;51.148;7.014;2022-08-19T19:12:51;23.00;1.00
6756;DHT22;3415;51.148;7.014;2022-08-19T19:15:18;22.80;1.00
6756;DHT22;3415;51.148;7.014;2022-08-19T19:17:49;22.80;1.00
6756;DHT22;3415;51.148;7.014;2022-08-19T19:20:16;22.70;1.00
6756;DHT22;3415;51.148;7.014;2022-08-19T19:22:43;22.70;1.00
6756;DHT22;3415;51.148;7.014;2022-08-19T19:25:11;22.60;1.00
6756;DHT22;3415;51.148;7.014;2022-08-19T19:27:38;22.50;1.00
6756;DHT22;3415;51.148;7.014;2022-08-19T19:30:06;22.50;1.00
6756;DHT22;3415;51.148;7.014;2022-08-19T19:32:34;22.40;1.00
6756;DHT22;3415;51.148;7.014;2022-08-19T19:35:05;22.40;1.00
6756;DHT22;3415;51.148;7.014;2022-08-19T19:37:34;22.20;1.00
6756;DHT22;3415;51.148;7.014;2022-08-19T19:40:00;22.10;1.00
6756;DHT22;3415;51.148;7.014;2022-08-19T19:42:27;22.00;1.00
6756;DHT22;3415;51.148;7.014;2022-08-19T19:44:54;21.80;1.00
6756;DHT22;3415;51.148;7.014;2022-08-19T19:47:22;21.70;1.00
6756;DHT22;3415;51.148;7.014;2022-08-19T19:49:50;21.50;1.00
6756;DHT22;3415;51.148;7.014;2022-08-19T19:52:18;21.40;1.00
6756;DHT22;3415;51.148;7.014;2022-08-19T19:54:45;21.30;1.00
6756;DHT22;3415;51.148;7.014;2022-08-19T19:57:12;21.20;1.00
6756;DHT22;3415;51.148;7.014;2022-08-19T19:59:39;21.10;1.00
6756;DHT22;3415;51.148;7.014;2022-08-19T20:02:06;21.00;1.00
6756;DHT22;3415;51.148;7.014;2022-08-19T20:04:33;20.90;1.00
6756;DHT22;3415;51.148;7.014;2022-08-19T20:07:01;20.60;1.00
6756;DHT22;3415;51.148;7.014;2022-08-19T20:09:30;20.80;1.00
6756;DHT22;3415;51.148;7.014;2022-08-19T20:11:56;20.70;1.00
6756;DHT22;3415;51.148;7.014;2022-08-19T20:14:25;20.70;1.00
6756;DHT22;3415;51.148;7.014;2022-08-19T20:16:53;20.70;1.00
6756;DHT22;3415;51.148;7.014;2022-08-19T20:19:23;20.70;1.00
6756;DHT22;3415;51.148;7.014;2022-08-19T20:21:52;20.60;1.00
6756;DHT22;3415;51.148;7.014;2022-08-19T20:24:21;20.60;1.00
6756;DHT22;3415;51.148;7.014;2022-08-19T20:26:51;20.50;1.00
6756;DHT22;3415;51.148;7.014;2022-08-19T20:29:19;20.50;1.00
6756;DHT22;3415;51.148;7.014;2022-08-19T20:31:46;20.60;1.00
6756;DHT22;3415;51.148;7.014;2022-08-19T20:34:14;20.60;1.00
6756;DHT22;3415;51.148;7.014;2022-08-19T20:36:41;20.60;1.00
6756;DHT22;3415;51.148;7.014;2022-08-19T20:39:09;20.70;1.00
6756;DHT22;3415;51.148;7.014;2022-08-19T20:41:37;20.70;1.00
6756;DHT22;3415;51.148;7.014;2022-08-19T20:44:05;20.60;1.00
6756;DHT22;3415;51.148;7.014;2022-08-19T20:46:33;20.70;1.00
6756;DHT22;3415;51.148;7.014;2022-08-19T20:49:00;20.70;1.00
6756;DHT22;3415;51.148;7.014;2022-08-19T20:51:29;20.70;1.00
6756;DHT22;3415;51.148;7.014;2022-08-19T20:53:56;20.90;1.00
6756;DHT22;3415;51.148;7.014;2022-08-19T20:56:24;21.00;1.00
6756;DHT22;3415;51.148;7.014;2022-08-19T20:58:52;21.00;1.00
6756;DHT22;3415;51.148;7.014;2022-08-19T21:01:20;21.10;1.00
6756;DHT22;3415;51.148;7.014;2022-08-19T21:03:47;21.10;1.00
6756;DHT22;3415;51.148;7.014;2022-08-19T21:06:16;21.10;1.00
6756;DHT22;3415;51.148;7.014;2022-08-19T21:08:43;21.20;1.00
6756;DHT22;3415;51.148;7.014;2022-08-19T21:11:09;21.40;1.00
6756;DHT22;3415;51.148;7.014;2022-08-19T21:13:38;21.30;1.00
6756;DHT22;3415;51.148;7.014;2022-08-19T21:16:05;21.20;1.00
